Time;durP1;ratioP1;P1;durP2;ratioP2;P2;SDS_P1;SDS_P2;PMS_P1;PMS_P2;Temp;Humidity;BMP_temperature;BMP_pressure;BME280_temperature;BME280_humidity;BME280_pressure;Samples;Min_cycle;Max_cycle;Signal;HPM_P1;HPM_P2
2021/08/11 00:01:30;;;;;;;;;;;16.50;99.90;;;;;;5061636;28;19954;-57
2021/08/11 00:04:24;;;;;;;;;;;16.40;99.90;;;;;;5071658;28;19960;-57
2021/08/11 00:07:14;;;;;;;;;;;16.30;99.90;;;;;;5069799;28;19966;-56
2021/08/11 00:10:04;;;;;;;;;;;16.20;99.90;;;;;;5071146;28;19982;-57
2021/08/11 00:12:53;;;;;;;;;;;16.20;99.90;;;;;;5066259;28;20069;-57
2021/08/11 00:15:42;;;;;;;;;;;16.20;99.90;;;;;;5060545;28;19958;-56
2021/08/11 00:18:31;;;;;;;;;;;16.10;99.90;;;;;;5069762;28;19942;-57
2021/08/11 00:21:20;;;;;;;;;;;16.20;99.90;;;;;;5068406;28;20320;-57
2021/08/11 00:24:08;;;;;;;;;;;16.30;99.90;;;;;;5066105;28;20005;-57
2021/08/11 00:26:58;;;;;;;;;;;16.30;99.90;;;;;;5073162;28;19935;-56
2021/08/11 00:29:47;;;;;;;;;;;16.30;99.90;;;;;;5072758;28;20275;-57
2021/08/11 00:32:36;;;;;;;;;;;16.20;99.90;;;;;;5069397;28;19998;-58
2021/08/11 00:38:38;;;;;;;;;;;16.10;99.90;;;;;;5073446;28;19966;-57
2021/08/11 00:41:32;;;;;;;;;;;16.10;99.90;;;;;;5092544;28;19935;-57
2021/08/11 00:44:23;;;;;;;;;;;15.90;99.90;;;;;;5068285;28;19975;-57
2021/08/11 00:47:13;;;;;;;;;;;15.90;99.90;;;;;;5088655;28;19931;-57
2021/08/11 00:50:05;;;;;;;;;;;15.80;99.90;;;;;;5095559;28;20250;-56
2021/08/11 00:52:54;;;;;;;;;;;15.70;99.90;;;;;;5070156;28;20326;-59
2021/08/11 00:55:44;;;;;;;;;;;15.60;99.90;;;;;;5068903;28;20047;-56
2021/08/11 00:58:36;;;;;;;;;;;15.60;99.90;;;;;;5095453;28;19928;-57
2021/08/11 01:01:27;;;;;;;;;;;15.60;99.90;;;;;;5065957;28;19932;-57
2021/08/11 01:04:21;;;;;;;;;;;15.60;99.90;;;;;;5095719;27;19944;-57
2021/08/11 01:07:13;;;;;;;;;;;15.50;99.90;;;;;;5069712;28;19931;-58
2021/08/11 01:10:03;;;;;;;;;;;15.50;99.90;;;;;;5095554;28;19925;-58
2021/08/11 01:12:54;;;;;;;;;;;15.50;99.90;;;;;;5095894;28;20368;-57
2021/08/11 01:15:46;;;;;;;;;;;15.50;99.90;;;;;;5096084;28;19931;-59
2021/08/11 01:18:43;;;;;;;;;;;15.40;99.90;;;;;;5101380;28;19924;-57
2021/08/11 01:21:34;;;;;;;;;;;15.30;99.90;;;;;;5089095;28;19924;-57
2021/08/11 01:24:27;;;;;;;;;;;15.30;99.90;;;;;;5101546;27;19924;-57
2021/08/11 01:27:39;;;;;;;;;;;15.20;99.90;;;;;;5100236;27;19936;-57
2021/08/11 01:30:31;;;;;;;;;;;15.20;99.90;;;;;;5067322;28;19928;-57
2021/08/11 01:33:28;;;;;;;;;;;15.20;99.90;;;;;;5078208;28;19928;-57
2021/08/11 01:39:36;;;;;;;;;;;15.30;99.90;;;;;;5067485;28;20307;-57
2021/08/11 01:42:39;;;;;;;;;;;15.30;99.90;;;;;;5073765;28;19931;-59
2021/08/11 01:45:33;;;;;;;;;;;15.30;99.90;;;;;;5082195;28;19946;-57
2021/08/11 01:48:24;;;;;;;;;;;15.40;99.90;;;;;;5080762;28;20015;-57
2021/08/11 01:51:14;;;;;;;;;;;15.40;99.90;;;;;;5088147;28;19932;-59
2021/08/11 01:54:04;;;;;;;;;;;15.40;99.90;;;;;;5091335;28;19925;-57
2021/08/11 01:56:55;;;;;;;;;;;15.40;99.90;;;;;;5075990;28;19931;-57
2021/08/11 01:59:45;;;;;;;;;;;15.40;99.90;;;;;;5093620;28;19932;-57
2021/08/11 02:02:37;;;;;;;;;;;15.30;99.90;;;;;;5078727;28;20287;-59
2021/08/11 02:05:31;;;;;;;;;;;15.30;99.90;;;;;;5101514;27;19924;-58
2021/08/11 02:08:30;;;;;;;;;;;15.30;99.90;;;;;;5074966;28;19978;-57
2021/08/11 02:11:20;;;;;;;;;;;15.30;99.90;;;;;;5076067;28;19924;-56
2021/08/11 02:14:10;;;;;;;;;;;15.30;99.90;;;;;;5080408;28;19925;-57
2021/08/11 02:17:00;;;;;;;;;;;15.30;99.90;;;;;;5075450;28;19924;-57
2021/08/11 02:19:48;;;;;;;;;;;15.30;99.90;;;;;;5104664;27;20379;-57
2021/08/11 02:22:37;;;;;;;;;;;15.30;99.90;;;;;;5103997;27;19948;-57
2021/08/11 02:25:26;;;;;;;;;;;15.30;99.90;;;;;;5102466;27;19970;-57
2021/08/11 02:28:20;;;;;;;;;;;15.30;99.90;;;;;;5097165;28;19935;-57
2021/08/11 02:31:13;;;;;;;;;;;15.30;99.90;;;;;;5093753;28;19924;-58
2021/08/11 02:34:05;;;;;;;;;;;15.20;99.90;;;;;;5074448;28;19924;-57
2021/08/11 02:36:58;;;;;;;;;;;15.20;99.90;;;;;;5097675;28;19924;-57
2021/08/11 02:39:49;;;;;;;;;;;15.20;99.90;;;;;;5099806;28;19928;-57
2021/08/11 02:42:41;;;;;;;;;;;15.20;99.90;;;;;;5074116;28;19930;-57
2021/08/11 02:45:30;;;;;;;;;;;15.30;99.90;;;;;;5095260;27;19925;-57
2021/08/11 02:48:21;;;;;;;;;;;15.30;99.90;;;;;;5085250;28;19928;-57
2021/08/11 02:51:35;;;;;;;;;;;15.30;99.90;;;;;;5097211;28;20260;-57
2021/08/11 02:54:25;;;;;;;;;;;15.40;99.90;;;;;;5094917;28;19924;-57
2021/08/11 02:57:15;;;;;;;;;;;15.40;99.90;;;;;;5085453;28;19931;-57
2021/08/11 03:00:06;;;;;;;;;;;15.40;99.90;;;;;;5084970;28;19931;-57
2021/08/11 03:02:56;;;;;;;;;;;15.40;99.90;;;;;;5070024;28;19932;-57
2021/08/11 03:05:46;;;;;;;;;;;15.40;99.90;;;;;;5087328;27;19924;-57
2021/08/11 03:08:35;;;;;;;;;;;15.40;99.90;;;;;;5070676;28;19924;-57
2021/08/11 03:11:27;;;;;;;;;;;15.40;99.90;;;;;;5100493;27;19930;-59
2021/08/11 03:14:17;;;;;;;;;;;15.50;99.90;;;;;;5098563;27;20031;-56
2021/08/11 03:17:10;;;;;;;;;;;15.50;99.90;;;;;;5091431;28;19930;-56
2021/08/11 03:20:00;;;;;;;;;;;15.50;99.90;;;;;;5067930;28;19924;-57
2021/08/11 03:22:48;;;;;;;;;;;15.50;99.90;;;;;;5072888;28;20044;-57
2021/08/11 03:25:38;;;;;;;;;;;15.50;99.90;;;;;;5073558;28;19924;-56
2021/08/11 03:28:27;;;;;;;;;;;15.70;99.90;;;;;;5073974;28;20564;-57
2021/08/11 03:31:19;;;;;;;;;;;15.70;99.90;;;;;;5067406;28;19936;-57
2021/08/11 03:34:09;;;;;;;;;;;15.80;99.90;;;;;;5098305;28;19945;-58
2021/08/11 03:36:59;;;;;;;;;;;15.80;99.90;;;;;;5097451;27;19924;-57
2021/08/11 03:39:49;;;;;;;;;;;15.80;99.90;;;;;;5102143;27;19934;-57
2021/08/11 03:42:38;;;;;;;;;;;15.80;99.90;;;;;;5068362;28;19950;-57
2021/08/11 03:45:34;;;;;;;;;;;15.80;99.90;;;;;;5070132;28;20359;-57
2021/08/11 03:48:26;;;;;;;;;;;15.80;99.90;;;;;;5100664;27;21243;-57
2021/08/11 03:51:16;;;;;;;;;;;15.80;99.90;;;;;;5098229;28;19931;-58
2021/08/11 03:54:30;;;;;;;;;;;15.80;99.90;;;;;;5072582;28;20011;-56
2021/08/11 03:57:20;;;;;;;;;;;15.70;99.90;;;;;;5098493;27;19928;-57
2021/08/11 04:00:09;;;;;;;;;;;15.70;99.90;;;;;;5068512;28;20443;-57
2021/08/11 04:03:04;;;;;;;;;;;15.70;99.90;;;;;;5067851;28;19928;-57
2021/08/11 04:05:52;;;;;;;;;;;15.80;99.90;;;;;;5070234;28;19933;-57
2021/08/11 04:08:43;;;;;;;;;;;15.90;99.90;;;;;;5071213;28;19924;-57
2021/08/11 04:11:32;;;;;;;;;;;15.90;99.90;;;;;;5071989;28;20008;-56
2021/08/11 04:14:20;;;;;;;;;;;15.90;99.90;;;;;;5076534;28;19978;-57
2021/08/11 04:17:09;;;;;;;;;;;15.90;99.90;;;;;;5066374;28;19936;-57
2021/08/11 04:20:03;;;;;;;;;;;15.90;99.90;;;;;;5073687;28;19932;-57
2021/08/11 04:22:51;;;;;;;;;;;16.00;99.90;;;;;;5076101;28;19933;-57
2021/08/11 04:25:41;;;;;;;;;;;16.00;99.90;;;;;;5076459;28;19924;-57
2021/08/11 04:28:30;;;;;;;;;;;16.00;99.90;;;;;;5066136;28;20374;-57
2021/08/11 04:31:19;;;;;;;;;;;16.10;99.90;;;;;;5060796;28;19931;-57
2021/08/11 04:34:08;;;;;;;;;;;16.10;99.90;;;;;;5070139;28;20144;-57
2021/08/11 04:36:58;;;;;;;;;;;16.20;99.90;;;;;;5069338;28;19929;-57
2021/08/11 04:39:48;;;;;;;;;;;16.20;99.90;;;;;;5073512;28;19924;-56
2021/08/11 04:42:38;;;;;;;;;;;16.30;99.90;;;;;;5078384;28;19924;-57
2021/08/11 04:45:27;;;;;;;;;;;16.20;99.90;;;;;;5084245;28;19928;-57
2021/08/11 04:48:16;;;;;;;;;;;16.20;99.90;;;;;;5089979;28;19931;-60
2021/08/11 04:51:04;;;;;;;;;;;16.20;99.90;;;;;;5071330;28;20280;-57
2021/08/11 04:53:53;;;;;;;;;;;16.20;99.90;;;;;;5074713;28;19924;-57
2021/08/11 04:56:42;;;;;;;;;;;16.20;99.90;;;;;;5075882;28;19931;-57
2021/08/11 04:59:32;;;;;;;;;;;16.20;99.90;;;;;;5065432;28;19925;-57
2021/08/11 05:02:23;;;;;;;;;;;16.30;99.90;;;;;;5063108;28;20280;-57
2021/08/11 05:05:12;;;;;;;;;;;16.40;99.90;;;;;;5041224;28;19931;-57
2021/08/11 05:08:01;;;;;;;;;;;16.60;99.90;;;;;;5052305;28;19931;-59
2021/08/11 05:10:50;;;;;;;;;;;16.70;99.90;;;;;;5047386;28;19954;-57
2021/08/11 05:13:38;;;;;;;;;;;16.80;99.90;;;;;;5051959;28;19924;-57
2021/08/11 05:16:29;;;;;;;;;;;16.90;99.90;;;;;;5037203;28;19925;-57
2021/08/11 05:19:17;;;;;;;;;;;16.90;99.90;;;;;;5060933;28;20482;-57
2021/08/11 05:22:06;;;;;;;;;;;16.90;99.90;;;;;;5058654;28;20330;-57
2021/08/11 05:24:54;;;;;;;;;;;17.00;99.90;;;;;;5059241;28;19925;-57
2021/08/11 05:27:43;;;;;;;;;;;17.00;99.90;;;;;;5040121;28;20233;-57
2021/08/11 05:30:32;;;;;;;;;;;17.00;99.90;;;;;;5041314;28;19931;-57
2021/08/11 05:33:22;;;;;;;;;;;17.10;99.90;;;;;;5053727;28;19943;-57
2021/08/11 05:36:11;;;;;;;;;;;17.20;99.90;;;;;;5061753;28;20376;-57
2021/08/11 05:39:00;;;;;;;;;;;17.40;99.90;;;;;;5055131;28;19928;-57
2021/08/11 05:41:49;;;;;;;;;;;17.50;99.90;;;;;;5059689;28;20342;-57
2021/08/11 05:44:37;;;;;;;;;;;17.60;99.90;;;;;;5053847;28;19947;-57
2021/08/11 05:47:26;;;;;;;;;;;17.60;99.90;;;;;;5051378;28;20005;-58
2021/08/11 05:50:16;;;;;;;;;;;17.80;99.90;;;;;;5051655;28;20007;-57
2021/08/11 05:53:04;;;;;;;;;;;18.10;99.90;;;;;;5052255;28;19928;-57
2021/08/11 05:55:53;;;;;;;;;;;18.40;99.90;;;;;;5048678;28;19970;-58
2021/08/11 05:58:42;;;;;;;;;;;18.30;99.90;;;;;;5061696;28;20015;-57
2021/08/11 06:01:31;;;;;;;;;;;18.20;99.90;;;;;;5055394;28;20402;-57
2021/08/11 06:04:22;;;;;;;;;;;18.40;99.90;;;;;;5073420;28;19928;-58
2021/08/11 06:07:12;;;;;;;;;;;18.20;99.90;;;;;;5074195;28;19931;-58
2021/08/11 06:10:01;;;;;;;;;;;17.90;99.90;;;;;;5073473;28;19964;-58
2021/08/11 06:12:52;;;;;;;;;;;18.00;99.90;;;;;;5073760;28;19936;-57
2021/08/11 06:15:42;;;;;;;;;;;17.90;99.90;;;;;;5068134;28;19924;-58
2021/08/11 06:18:31;;;;;;;;;;;18.20;99.90;;;;;;5077410;28;20019;-58
2021/08/11 06:21:19;;;;;;;;;;;18.30;99.90;;;;;;5078282;28;20334;-58
2021/08/11 06:24:09;;;;;;;;;;;18.70;99.90;;;;;;5083880;28;19938;-58
2021/08/11 06:26:59;;;;;;;;;;;19.70;99.90;;;;;;5072265;28;19924;-58
2021/08/11 06:29:48;;;;;;;;;;;20.40;99.90;;;;;;5071014;28;20402;-58
2021/08/11 06:32:36;;;;;;;;;;;20.90;99.90;;;;;;5071372;28;19928;-58
2021/08/11 06:35:26;;;;;;;;;;;21.00;99.90;;;;;;5072899;28;19932;-56
2021/08/11 06:38:14;;;;;;;;;;;20.70;99.90;;;;;;5073557;28;20323;-55
2021/08/11 06:41:04;;;;;;;;;;;20.00;99.90;;;;;;5065808;28;20277;-56
2021/08/11 06:44:00;;;;;;;;;;;19.90;99.90;;;;;;5100257;27;19928;-56
2021/08/11 06:46:50;;;;;;;;;;;20.10;99.90;;;;;;5070430;27;19932;-56
2021/08/11 06:49:46;;;;;;;;;;;20.60;99.90;;;;;;5073750;28;19931;-56
2021/08/11 06:52:35;;;;;;;;;;;22.40;99.90;;;;;;5073245;28;20014;-56
2021/08/11 06:55:24;;;;;;;;;;;25.70;99.90;;;;;;5072651;28;20288;-56
2021/08/11 06:58:15;;;;;;;;;;;28.60;93.90;;;;;;5080769;28;20021;-56
2021/08/11 07:01:04;;;;;;;;;;;28.40;91.20;;;;;;5066943;28;19932;-58
2021/08/11 07:03:53;;;;;;;;;;;30.10;88.60;;;;;;5070464;28;19997;-56
2021/08/11 07:06:43;;;;;;;;;;;31.40;82.00;;;;;;5079949;28;21450;-59
2021/08/11 07:09:32;;;;;;;;;;;30.50;81.50;;;;;;5082232;28;19928;-56
2021/08/11 07:12:21;;;;;;;;;;;29.20;84.30;;;;;;5085347;28;20007;-57
2021/08/11 07:15:11;;;;;;;;;;;27.30;90.10;;;;;;5084027;28;19930;-57
2021/08/11 07:18:01;;;;;;;;;;;25.90;92.90;;;;;;5093214;28;19924;-57
2021/08/11 07:20:49;;;;;;;;;;;24.50;94.90;;;;;;5087156;28;20029;-56
2021/08/11 07:23:38;;;;;;;;;;;23.80;97.70;;;;;;5087077;28;20386;-56
2021/08/11 07:26:27;;;;;;;;;;;23.70;98.20;;;;;;5074157;28;19924;-56
2021/08/11 07:29:39;;;;;;;;;;;23.20;99.10;;;;;;5054142;28;20431;-58
2021/08/11 07:32:29;;;;;;;;;;;22.50;99.90;;;;;;5061250;28;20287;-56
2021/08/11 07:35:18;;;;;;;;;;;21.90;99.90;;;;;;5083954;28;19956;-56
2021/08/11 07:38:07;;;;;;;;;;;21.50;99.90;;;;;;5083797;28;20077;-57
2021/08/11 07:40:56;;;;;;;;;;;21.60;99.90;;;;;;5101789;28;19971;-56
2021/08/11 07:43:45;;;;;;;;;;;21.20;99.90;;;;;;5082108;28;19924;-56
2021/08/11 07:46:34;;;;;;;;;;;21.30;99.90;;;;;;5085710;28;19924;-56
2021/08/11 07:49:24;;;;;;;;;;;21.00;99.90;;;;;;5081677;28;19931;-56
2021/08/11 07:52:13;;;;;;;;;;;20.90;99.90;;;;;;5079807;28;19924;-56
2021/08/11 07:55:01;;;;;;;;;;;21.50;99.90;;;;;;5079617;28;20097;-57
2021/08/11 07:57:51;;;;;;;;;;;21.70;99.90;;;;;;5079242;28;19928;-57
2021/08/11 08:00:40;;;;;;;;;;;21.40;99.90;;;;;;5086966;28;19935;-57
2021/08/11 08:03:29;;;;;;;;;;;21.10;99.90;;;;;;5082098;28;20233;-56
2021/08/11 08:06:19;;;;;;;;;;;22.20;99.90;;;;;;5081216;28;19924;-56
2021/08/11 08:09:08;;;;;;;;;;;23.70;99.90;;;;;;5071799;28;19924;-56
2021/08/11 08:11:57;;;;;;;;;;;23.90;99.90;;;;;;5070865;28;20287;-59
2021/08/11 08:14:47;;;;;;;;;;;23.30;99.90;;;;;;5080197;28;20291;-56
2021/08/11 08:17:36;;;;;;;;;;;23.50;99.90;;;;;;5083097;28;20686;-59
2021/08/11 08:20:34;;;;;;;;;;;23.80;99.90;;;;;;5076056;28;19932;-56
2021/08/11 08:23:25;;;;;;;;;;;24.70;99.90;;;;;;5080722;28;19931;-57
2021/08/11 08:26:13;;;;;;;;;;;24.30;99.90;;;;;;5079321;28;19928;-57
2021/08/11 08:29:03;;;;;;;;;;;25.00;99.90;;;;;;5080965;28;19943;-56
2021/08/11 08:31:52;;;;;;;;;;;24.80;99.90;;;;;;5079325;28;19927;-56
2021/08/11 08:34:41;;;;;;;;;;;24.20;99.90;;;;;;5076880;28;20269;-60
2021/08/11 08:37:30;;;;;;;;;;;23.90;99.90;;;;;;5085768;28;19924;-57
2021/08/11 08:40:45;;;;;;;;;;;24.50;99.90;;;;;;5086994;28;19928;-56
2021/08/11 08:43:59;;;;;;;;;;;25.40;98.30;;;;;;5092995;28;20010;-57
2021/08/11 08:46:51;;;;;;;;;;;24.70;99.00;;;;;;5085150;28;19931;-57
2021/08/11 08:49:40;;;;;;;;;;;25.20;99.30;;;;;;5087212;28;19932;-60
2021/08/11 08:52:29;;;;;;;;;;;26.50;96.50;;;;;;5079623;28;19931;-56
2021/08/11 08:55:18;;;;;;;;;;;26.90;95.60;;;;;;5080250;28;19924;-57
2021/08/11 08:58:06;;;;;;;;;;;25.80;95.80;;;;;;5080560;28;20356;-58
2021/08/11 09:00:55;;;;;;;;;;;26.10;96.50;;;;;;5076450;28;20021;-57
2021/08/11 09:03:46;;;;;;;;;;;26.00;95.90;;;;;;5076300;28;19925;-57
2021/08/11 09:06:35;;;;;;;;;;;26.40;95.80;;;;;;5074698;28;20375;-57
2021/08/11 09:09:33;;;;;;;;;;;27.40;93.90;;;;;;5082077;28;19924;-57
2021/08/11 09:12:23;;;;;;;;;;;27.40;93.30;;;;;;5069851;28;19925;-56
2021/08/11 09:15:25;;;;;;;;;;;25.70;95.20;;;;;;5081333;28;19932;-57
2021/08/11 09:18:15;;;;;;;;;;;26.00;96.20;;;;;;5087509;28;19924;-57
2021/08/11 09:21:11;;;;;;;;;;;26.40;95.30;;;;;;5091578;28;20022;-56
2021/08/11 09:24:00;;;;;;;;;;;26.60;94.60;;;;;;5079621;28;20101;-57
2021/08/11 09:26:49;;;;;;;;;;;27.70;93.50;;;;;;5080052;28;19925;-57
2021/08/11 09:29:37;;;;;;;;;;;28.90;92.00;;;;;;5073732;28;20320;-58
2021/08/11 09:32:26;;;;;;;;;;;29.70;90.30;;;;;;5088188;28;19947;-57
2021/08/11 09:35:14;;;;;;;;;;;29.30;90.20;;;;;;5079172;28;20004;-57
2021/08/11 09:38:06;;;;;;;;;;;28.40;90.50;;;;;;5097355;28;20284;-57
2021/08/11 09:40:58;;;;;;;;;;;27.90;91.60;;;;;;5091367;28;19947;-57
2021/08/11 09:43:48;;;;;;;;;;;26.40;93.40;;;;;;5080640;28;20329;-57
2021/08/11 09:46:37;;;;;;;;;;;25.50;95.70;;;;;;5072606;28;19928;-59
2021/08/11 09:49:26;;;;;;;;;;;24.70;96.10;;;;;;5071374;28;20007;-58
2021/08/11 09:52:15;;;;;;;;;;;24.60;98.00;;;;;;5081557;28;19931;-57
2021/08/11 09:55:05;;;;;;;;;;;24.90;97.20;;;;;;5070304;28;19970;-57
2021/08/11 09:57:54;;;;;;;;;;;25.80;97.10;;;;;;5083521;28;20279;-57
2021/08/11 10:00:44;;;;;;;;;;;26.60;94.40;;;;;;5058029;28;19925;-57
2021/08/11 10:03:34;;;;;;;;;;;26.90;93.90;;;;;;5072259;28;20012;-57
2021/08/11 10:06:26;;;;;;;;;;;26.00;94.70;;;;;;5070416;28;19933;-57
2021/08/11 10:09:16;;;;;;;;;;;25.10;96.60;;;;;;5055455;28;19933;-57
2021/08/11 10:12:07;;;;;;;;;;;24.90;97.10;;;;;;5053675;28;19924;-57
2021/08/11 10:14:56;;;;;;;;;;;24.60;97.20;;;;;;5044406;28;19947;-57
2021/08/11 10:17:45;;;;;;;;;;;24.50;98.00;;;;;;5061375;28;19928;-57
2021/08/11 10:20:33;;;;;;;;;;;24.40;98.20;;;;;;5055169;28;19925;-57
2021/08/11 10:23:22;;;;;;;;;;;23.90;99.10;;;;;;5056006;28;19931;-58
2021/08/11 10:26:13;;;;;;;;;;;23.60;99.00;;;;;;5055465;28;19924;-57
2021/08/11 10:29:05;;;;;;;;;;;23.70;99.70;;;;;;5056146;28;20374;-57
2021/08/11 10:31:55;;;;;;;;;;;24.00;99.70;;;;;;5067800;28;19928;-58
2021/08/11 10:34:45;;;;;;;;;;;24.20;99.50;;;;;;5047037;28;19924;-57
2021/08/11 10:37:35;;;;;;;;;;;24.20;99.70;;;;;;5064799;28;19947;-57
2021/08/11 10:43:36;;;;;;;;;;;23.50;99.90;;;;;;5054310;28;20335;-57
2021/08/11 10:46:34;;;;;;;;;;;23.60;99.90;;;;;;5053074;28;20364;-57
2021/08/11 10:49:27;;;;;;;;;;;23.70;99.90;;;;;;5056740;28;20451;-57
2021/08/11 10:52:17;;;;;;;;;;;24.00;99.90;;;;;;5054994;28;19944;-57
2021/08/11 10:55:08;;;;;;;;;;;24.70;99.10;;;;;;5063926;28;20427;-57
2021/08/11 10:57:57;;;;;;;;;;;24.80;98.30;;;;;;5060176;28;20318;-59
2021/08/11 11:00:46;;;;;;;;;;;28.00;94.90;;;;;;5051069;28;19929;-58
2021/08/11 11:03:52;;;;;;;;;;;31.30;85.20;;;;;;5074105;28;19963;-59
2021/08/11 11:06:52;;;;;;;;;;;32.70;77.80;;;;;;5070609;28;19990;-58
2021/08/11 11:09:41;;;;;;;;;;;32.80;75.50;;;;;;5070429;28;19932;-58
2021/08/11 11:15:50;;;;;;;;;;;30.10;83.10;;;;;;5066914;28;19946;-58
2021/08/11 11:18:59;;;;;;;;;;;28.70;85.80;;;;;;5072559;28;19925;-56
2021/08/11 11:21:49;;;;;;;;;;;28.80;88.30;;;;;;5071307;28;19935;-56
2021/08/11 11:24:50;;;;;;;;;;;27.30;87.60;;;;;;5077333;28;19946;-57
2021/08/11 11:27:55;;;;;;;;;;;26.50;91.30;;;;;;5071438;28;19932;-57
2021/08/11 11:30:44;;;;;;;;;;;27.20;92.50;;;;;;5066328;28;19924;-57
2021/08/11 11:33:33;;;;;;;;;;;27.40;91.80;;;;;;5071518;28;20054;-57
2021/08/11 11:36:23;;;;;;;;;;;27.40;92.40;;;;;;5071954;28;20275;-57
2021/08/11 11:39:13;;;;;;;;;;;27.20;91.40;;;;;;5065601;28;19962;-57
2021/08/11 11:42:26;;;;;;;;;;;27.20;91.50;;;;;;5071435;28;19928;-57
2021/08/11 11:45:15;;;;;;;;;;;27.00;92.60;;;;;;5066143;28;19959;-57
2021/08/11 11:48:04;;;;;;;;;;;26.00;92.70;;;;;;5071443;28;19924;-57
2021/08/11 11:51:01;;;;;;;;;;;26.00;93.90;;;;;;5073387;28;20023;-57
2021/08/11 11:53:49;;;;;;;;;;;26.30;93.70;;;;;;5071156;28;19925;-57
2021/08/11 11:56:40;;;;;;;;;;;26.20;92.80;;;;;;5071240;28;19931;-57
2021/08/11 11:59:29;;;;;;;;;;;26.30;94.90;;;;;;5070784;28;19924;-57
2021/08/11 12:02:44;;;;;;;;;;;26.50;93.60;;;;;;5072728;28;19925;-57
2021/08/11 12:05:43;;;;;;;;;;;26.20;94.00;;;;;;5076313;28;20383;-57
2021/08/11 12:08:32;;;;;;;;;;;26.10;94.50;;;;;;5077416;28;19924;-57
2021/08/11 12:11:21;;;;;;;;;;;26.50;95.80;;;;;;5077665;28;19947;-57
2021/08/11 12:14:12;;;;;;;;;;;26.30;95.20;;;;;;5072931;28;20050;-57
2021/08/11 12:17:02;;;;;;;;;;;26.00;95.50;;;;;;5071690;28;19931;-57
2021/08/11 12:19:50;;;;;;;;;;;25.80;95.50;;;;;;5076124;28;20257;-57
2021/08/11 12:22:40;;;;;;;;;;;26.20;95.70;;;;;;5086023;28;19933;-58
2021/08/11 12:25:29;;;;;;;;;;;25.80;94.90;;;;;;5072435;28;19935;-57
2021/08/11 12:28:18;;;;;;;;;;;25.60;95.80;;;;;;5068134;28;20267;-57
2021/08/11 12:31:10;;;;;;;;;;;25.90;96.30;;;;;;5068373;28;19925;-57
2021/08/11 12:34:01;;;;;;;;;;;26.20;95.60;;;;;;5075257;28;19930;-56
2021/08/11 12:36:50;;;;;;;;;;;25.90;95.40;;;;;;5078015;28;19932;-56
2021/08/11 12:39:40;;;;;;;;;;;25.90;96.30;;;;;;5073136;28;20410;-57
2021/08/11 12:42:29;;;;;;;;;;;26.30;95.60;;;;;;5052770;28;19925;-56
2021/08/11 12:45:18;;;;;;;;;;;26.60;94.40;;;;;;5072329;28;19932;-57
2021/08/11 12:48:22;;;;;;;;;;;26.40;93.70;;;;;;5076554;28;19929;-57
2021/08/11 12:51:22;;;;;;;;;;;26.20;94.30;;;;;;5075639;28;20374;-57
2021/08/11 12:54:11;;;;;;;;;;;25.80;94.20;;;;;;5082585;28;19928;-56
2021/08/11 12:57:00;;;;;;;;;;;25.60;94.60;;;;;;5082113;28;20364;-56
2021/08/11 12:59:49;;;;;;;;;;;25.40;95.70;;;;;;5085986;28;19924;-57
2021/08/11 13:02:38;;;;;;;;;;;25.90;95.30;;;;;;5088604;28;19924;-57
2021/08/11 13:05:27;;;;;;;;;;;26.50;94.90;;;;;;5076206;28;19931;-57
2021/08/11 13:08:17;;;;;;;;;;;26.80;93.90;;;;;;5079385;28;19931;-56
2021/08/11 13:11:07;;;;;;;;;;;26.40;94.30;;;;;;5084530;28;20402;-56
2021/08/11 13:13:55;;;;;;;;;;;26.60;94.20;;;;;;5071379;28;19995;-57
2021/08/11 13:16:59;;;;;;;;;;;26.40;94.00;;;;;;5082371;28;19928;-57
2021/08/11 13:19:49;;;;;;;;;;;26.20;96.00;;;;;;5065148;28;19924;-57
2021/08/11 13:22:38;;;;;;;;;;;26.80;94.70;;;;;;5076432;28;19931;-57
2021/08/11 13:25:28;;;;;;;;;;;27.00;95.10;;;;;;5072020;28;19928;-57
2021/08/11 13:28:17;;;;;;;;;;;27.10;93.50;;;;;;5073437;28;20013;-57
2021/08/11 13:31:08;;;;;;;;;;;26.90;93.60;;;;;;5069221;28;19943;-57
2021/08/11 13:33:58;;;;;;;;;;;26.80;93.40;;;;;;5072312;28;19932;-56
2021/08/11 13:36:46;;;;;;;;;;;26.70;94.10;;;;;;5071559;28;20027;-57
2021/08/11 13:39:36;;;;;;;;;;;26.90;93.70;;;;;;5073680;28;20391;-57
2021/08/11 13:42:26;;;;;;;;;;;26.50;94.40;;;;;;5068364;28;19929;-57
2021/08/11 13:45:15;;;;;;;;;;;26.40;94.50;;;;;;5070422;28;19924;-57
2021/08/11 13:48:05;;;;;;;;;;;25.80;95.50;;;;;;5071856;28;20020;-56
2021/08/11 13:50:54;;;;;;;;;;;25.90;95.90;;;;;;5081213;28;19939;-57
2021/08/11 13:53:43;;;;;;;;;;;26.00;95.20;;;;;;5079975;28;19924;-56
2021/08/11 13:56:32;;;;;;;;;;;26.40;94.80;;;;;;5068493;28;20367;-60
2021/08/11 13:59:22;;;;;;;;;;;26.50;94.10;;;;;;5062650;28;19924;-59
2021/08/11 14:02:40;;;;;;;;;;;26.10;94.80;;;;;;5073088;28;20365;-58
2021/08/11 14:05:29;;;;;;;;;;;26.80;94.40;;;;;;5081838;28;20011;-56
2021/08/11 14:08:18;;;;;;;;;;;27.50;93.50;;;;;;5089146;28;19924;-57
2021/08/11 14:11:07;;;;;;;;;;;27.90;91.90;;;;;;5090513;28;20040;-58
2021/08/11 14:13:56;;;;;;;;;;;28.30;91.80;;;;;;5078249;28;19931;-58
2021/08/11 14:16:46;;;;;;;;;;;27.80;91.50;;;;;;5075892;28;19924;-57
2021/08/11 14:19:36;;;;;;;;;;;27.20;92.50;;;;;;5078403;28;19924;-57
2021/08/11 14:22:24;;;;;;;;;;;27.20;92.70;;;;;;5085889;28;19928;-57
2021/08/11 14:25:13;;;;;;;;;;;27.20;93.10;;;;;;5088910;28;19993;-60
2021/08/11 14:28:02;;;;;;;;;;;27.50;92.20;;;;;;5082407;28;19924;-60
2021/08/11 14:30:51;;;;;;;;;;;27.40;91.70;;;;;;5084578;28;20394;-57
2021/08/11 14:34:05;;;;;;;;;;;26.40;92.00;;;;;;5081881;28;19924;-58
2021/08/11 14:36:53;;;;;;;;;;;25.70;93.90;;;;;;5084785;28;20417;-56
2021/08/11 14:39:42;;;;;;;;;;;25.90;94.30;;;;;;5080798;28;20287;-57
2021/08/11 14:42:30;;;;;;;;;;;25.80;93.80;;;;;;5080663;28;19931;-57
2021/08/11 14:45:19;;;;;;;;;;;25.80;94.60;;;;;;5080173;28;19932;-57
2021/08/11 14:48:08;;;;;;;;;;;25.80;95.20;;;;;;5087473;28;19930;-57
2021/08/11 14:50:58;;;;;;;;;;;26.20;95.70;;;;;;5082892;28;20372;-57
2021/08/11 14:53:47;;;;;;;;;;;26.30;95.20;;;;;;5080623;28;20375;-57
2021/08/11 14:56:36;;;;;;;;;;;26.30;93.30;;;;;;5082400;28;19932;-56
2021/08/11 14:59:24;;;;;;;;;;;26.40;93.70;;;;;;5080726;28;20295;-56
2021/08/11 15:02:12;;;;;;;;;;;26.30;94.10;;;;;;5056078;28;20063;-57
2021/08/11 15:05:02;;;;;;;;;;;26.20;94.50;;;;;;5064534;28;19936;-57
2021/08/11 15:11:05;;;;;;;;;;;26.10;95.10;;;;;;5052079;28;19928;-56
2021/08/11 15:13:54;;;;;;;;;;;26.30;95.30;;;;;;5061509;28;20445;-56
2021/08/11 15:16:43;;;;;;;;;;;26.20;95.10;;;;;;5048878;28;20031;-56
2021/08/11 15:19:32;;;;;;;;;;;26.10;94.30;;;;;;5055524;28;20381;-56
2021/08/11 15:22:20;;;;;;;;;;;26.00;95.10;;;;;;5065596;28;20376;-56
2021/08/11 15:25:11;;;;;;;;;;;26.20;95.40;;;;;;5056177;28;19947;-56
2021/08/11 15:27:59;;;;;;;;;;;26.00;95.30;;;;;;5068943;28;19997;-56
2021/08/11 15:30:48;;;;;;;;;;;25.80;96.20;;;;;;5048922;28;20007;-56
2021/08/11 15:33:37;;;;;;;;;;;25.90;96.20;;;;;;5070068;28;19928;-56
2021/08/11 15:36:26;;;;;;;;;;;25.80;96.30;;;;;;5068258;28;19928;-57
2021/08/11 15:39:15;;;;;;;;;;;25.50;94.90;;;;;;5061500;28;19929;-57
2021/08/11 15:42:10;;;;;;;;;;;25.70;95.20;;;;;;5067038;28;19970;-57
2021/08/11 15:44:59;;;;;;;;;;;25.60;95.70;;;;;;5060107;28;19925;-57
2021/08/11 15:47:48;;;;;;;;;;;25.60;95.90;;;;;;5068671;28;19930;-56
2021/08/11 15:50:37;;;;;;;;;;;25.30;95.40;;;;;;5063362;28;20281;-56
2021/08/11 15:53:50;;;;;;;;;;;25.20;95.80;;;;;;5070977;28;19929;-56
2021/08/11 15:56:40;;;;;;;;;;;25.20;95.80;;;;;;5068856;28;20400;-57
2021/08/11 15:59:30;;;;;;;;;;;25.20;95.50;;;;;;5064032;28;19924;-56
2021/08/11 16:02:44;;;;;;;;;;;25.10;96.00;;;;;;5069504;28;19928;-57
2021/08/11 16:05:33;;;;;;;;;;;25.10;95.30;;;;;;5073624;28;19931;-57
2021/08/11 16:08:21;;;;;;;;;;;25.20;95.80;;;;;;5071658;28;19924;-56
2021/08/11 16:11:10;;;;;;;;;;;25.10;95.50;;;;;;5073446;28;19994;-57
2021/08/11 16:13:58;;;;;;;;;;;25.10;95.20;;;;;;5074325;28;20322;-59
2021/08/11 16:16:49;;;;;;;;;;;25.20;94.90;;;;;;5071799;28;20376;-57
2021/08/11 16:19:37;;;;;;;;;;;25.30;95.00;;;;;;5072781;28;19929;-57
2021/08/11 16:22:26;;;;;;;;;;;25.60;94.70;;;;;;5070949;28;19928;-57
2021/08/11 16:25:14;;;;;;;;;;;25.80;94.50;;;;;;5085368;28;20011;-57
2021/08/11 16:28:03;;;;;;;;;;;25.80;94.20;;;;;;5059434;28;19932;-56
2021/08/11 16:34:05;;;;;;;;;;;25.60;94.40;;;;;;5069004;28;19975;-57
2021/08/11 16:36:54;;;;;;;;;;;25.60;94.90;;;;;;5081898;28;20013;-56
2021/08/11 16:39:43;;;;;;;;;;;25.20;95.30;;;;;;5076203;28;19978;-56
2021/08/11 16:42:32;;;;;;;;;;;25.00;95.20;;;;;;5069428;28;19928;-56
2021/08/11 16:45:22;;;;;;;;;;;24.90;95.00;;;;;;5073337;28;20011;-56
2021/08/11 16:48:11;;;;;;;;;;;24.70;95.60;;;;;;5069708;28;20308;-59
2021/08/11 16:51:01;;;;;;;;;;;24.60;95.60;;;;;;5078557;28;19924;-57
2021/08/11 16:53:54;;;;;;;;;;;24.50;96.20;;;;;;5074953;28;19998;-56